Time;durP1;ratioP1;P1;durP2;ratioP2;P2;SDS_P1;SDS_P2;PMS_P1;PMS_P2;Temp;Humidity;BMP_temperature;BMP_pressure;BME280_temperature;BME280_humidity;BME280_pressure;Samples;Min_cycle;Max_cycle;Signal;HPM_P1;HPM_P2
2023/11/24 00:00:00;;;;;;;12.95;1.75;;;7.20;99.90;;;;;;5033027;28;20543;-77
2023/11/24 00:02:48;;;;;;;15.65;2.30;;;7.20;99.90;;;;;;5048281;28;20081;-77
2023/11/24 00:05:34;;;;;;;11.48;2.17;;;7.20;99.90;;;;;;5010757;28;20045;-76
2023/11/24 00:08:20;;;;;;;19.02;2.47;;;7.10;99.90;;;;;;5005311;28;20038;-75
2023/11/24 00:11:06;;;;;;;16.38;2.63;;;7.10;99.90;;;;;;5043506;28;20036;-75
2023/11/24 00:13:52;;;;;;;8.90;2.20;;;7.10;99.90;;;;;;5044737;28;20079;-76
2023/11/24 00:16:38;;;;;;;12.60;1.92;;;7.10;99.90;;;;;;5026712;28;20069;-75
2023/11/24 00:19:25;;;;;;;11.90;2.13;;;7.10;99.90;;;;;;5037122;28;20037;-75
2023/11/24 00:22:11;;;;;;;10.65;1.58;;;7.20;99.90;;;;;;5034076;28;20124;-75
2023/11/24 00:24:57;;;;;;;9.10;1.75;;;7.20;99.90;;;;;;5015607;28;20355;-75
2023/11/24 00:27:43;;;;;;;10.77;2.20;;;7.10;99.90;;;;;;5025558;28;20053;-75
2023/11/24 00:30:29;;;;;;;9.25;2.15;;;7.10;99.90;;;;;;5028514;28;20485;-76
2023/11/24 00:33:18;;;;;;;14.18;2.15;;;7.10;99.90;;;;;;5026054;28;20041;-75
2023/11/24 00:36:06;;;;;;;9.82;2.33;;;7.20;99.90;;;;;;5019543;28;20482;-76
2023/11/24 00:38:52;;;;;;;10.20;1.83;;;7.10;99.90;;;;;;5042606;28;20413;-75
2023/11/24 00:41:38;;;;;;;7.50;1.83;;;7.10;99.90;;;;;;5015523;28;20042;-75
2023/11/24 00:44:24;;;;;;;16.33;2.85;;;7.10;99.90;;;;;;5023578;28;20037;-75
2023/11/24 00:47:10;;;;;;;8.20;2.03;;;7.10;99.90;;;;;;5038290;28;20481;-76
2023/11/24 00:49:56;;;;;;;11.10;2.35;;;7.10;99.90;;;;;;5011652;28;20049;-75
2023/11/24 00:52:42;;;;;;;12.00;2.22;;;7.10;99.90;;;;;;5021279;28;20073;-76
2023/11/24 00:55:30;;;;;;;11.32;2.60;;;7.10;99.90;;;;;;5037363;28;20127;-77
2023/11/24 00:58:19;;;;;;;8.98;1.83;;;7.10;99.90;;;;;;5044725;28;20033;-78
2023/11/24 01:01:05;;;;;;;14.93;2.65;;;7.00;99.90;;;;;;5039164;28;20124;-77
2023/11/24 01:03:58;;;;;;;12.40;2.08;;;7.00;99.90;;;;;;5002566;28;20041;-77
2023/11/24 01:06:44;;;;;;;13.43;2.67;;;7.00;99.90;;;;;;5046520;28;20048;-77
2023/11/24 01:09:30;;;;;;;8.25;1.98;;;7.00;99.90;;;;;;5021514;28;20047;-77
2023/11/24 01:12:16;;;;;;;12.43;2.28;;;7.00;99.90;;;;;;5015663;28;20671;-76
2023/11/24 01:15:03;;;;;;;9.38;2.17;;;7.00;99.90;;;;;;5017315;28;20032;-76
2023/11/24 01:17:49;;;;;;;13.38;3.22;;;7.00;99.90;;;;;;5047722;28;20075;-77
2023/11/24 01:20:35;;;;;;;16.38;2.45;;;6.90;99.90;;;;;;5012129;28;20100;-77
2023/11/24 01:23:21;;;;;;;13.95;2.15;;;6.90;99.90;;;;;;5035774;28;20072;-77
2023/11/24 01:26:07;;;;;;;12.65;2.60;;;6.90;99.90;;;;;;5036928;28;20102;-76
2023/11/24 01:28:53;;;;;;;16.52;3.35;;;6.90;99.90;;;;;;5022530;28;20623;-76
2023/11/24 01:31:39;;;;;;;12.77;2.20;;;6.90;99.90;;;;;;5023854;28;20470;-76
2023/11/24 01:34:25;;;;;;;17.00;2.15;;;6.90;99.90;;;;;;5008089;28;20068;-77
2023/11/24 01:37:11;;;;;;;11.07;2.15;;;6.90;99.90;;;;;;5015915;28;20034;-78
2023/11/24 01:39:57;;;;;;;18.13;2.28;;;6.80;99.90;;;;;;5038501;28;20033;-77
2023/11/24 01:42:44;;;;;;;12.25;2.50;;;6.80;99.90;;;;;;5019704;28;20037;-77
2023/11/24 01:45:30;;;;;;;9.48;2.17;;;6.70;99.90;;;;;;5006503;28;20139;-78
2023/11/24 01:48:16;;;;;;;14.45;2.75;;;6.70;99.90;;;;;;5007555;28;20083;-78
2023/11/24 01:51:06;;;;;;;15.50;2.10;;;6.80;99.90;;;;;;5023214;28;20045;-77
2023/11/24 01:53:55;;;;;;;16.48;2.40;;;6.70;99.90;;;;;;5003183;28;20038;-77
2023/11/24 01:56:41;;;;;;;15.90;2.67;;;6.70;99.90;;;;;;4994046;28;20041;-77
2023/11/24 01:59:27;;;;;;;11.43;2.13;;;6.60;99.90;;;;;;5030904;28;20106;-77
2023/11/24 02:02:14;;;;;;;11.10;2.35;;;6.60;99.90;;;;;;5036767;28;20045;-77
2023/11/24 02:05:01;;;;;;;12.63;2.53;;;6.70;99.90;;;;;;4994591;28;20037;-77
2023/11/24 02:07:47;;;;;;;16.58;2.65;;;6.60;99.90;;;;;;5023201;28;20076;-77
2023/11/24 02:10:34;;;;;;;12.48;2.95;;;6.60;99.90;;;;;;5020468;28;20520;-77
2023/11/24 02:13:29;;;;;;;12.25;2.58;;;6.60;99.90;;;;;;5013507;28;20461;-78
2023/11/24 02:16:15;;;;;;;12.75;2.10;;;6.60;99.90;;;;;;5016530;28;20026;-77
2023/11/24 02:19:02;;;;;;;17.25;2.75;;;;;;;;;;5015105;28;20047;-77
2023/11/24 02:21:48;;;;;;;20.05;3.50;;;;;;;;;;5015592;28;20042;-78
2023/11/24 02:24:34;;;;;;;17.58;3.42;;;;;;;;;;5017621;28;20034;-78
2023/11/24 02:27:22;;;;;;;12.73;2.33;;;;;;;;;;5030483;28;20075;-77
2023/11/24 02:30:11;;;;;;;17.95;3.28;;;;;;;;;;5017516;28;20075;-77
2023/11/24 02:32:58;;;;;;;21.50;3.78;;;;;;;;;;5023803;28;20057;-78
2023/11/24 02:35:44;;;;;;;23.73;3.85;;;;;;;;;;5049615;28;20400;-78
2023/11/24 02:38:31;;;;;;;16.25;3.15;;;;;;;;;;5025855;28;20064;-78
2023/11/24 02:41:17;;;;;;;21.55;3.80;;;;;;;;;;5016047;28;20030;-78
2023/11/24 02:44:05;;;;;;;13.20;2.88;;;;;;;;;;5007429;28;20409;-78
2023/11/24 02:46:51;;;;;;;14.30;3.37;;;;;;;;;;5024127;28;20445;-78
2023/11/24 02:49:39;;;;;;;21.13;3.80;;;;;;;;;;5040191;28;20071;-78
2023/11/24 02:52:25;;;;;;;16.08;2.67;;;;;;;;;;5042712;28;20041;-78
2023/11/24 02:55:13;;;;;;;20.25;3.63;;;;;;;;;;5026130;28;20038;-78
2023/11/24 02:58:01;;;;;;;18.38;2.90;;;;;;;;;;5016085;28;20033;-78
2023/11/24 03:00:47;;;;;;;18.23;3.30;;;;;;;;;;5016754;28;20444;-78
2023/11/24 03:03:33;;;;;;;25.83;3.97;;;;;;;;;;5010230;28;20052;-78
2023/11/24 03:06:21;;;;;;;22.58;2.78;;;;;;;;;;5055925;28;20067;-77
2023/11/24 03:09:09;;;;;;;27.30;4.22;;;;;;;;;;5054003;28;20413;-78
2023/11/24 03:11:55;;;;;;;14.98;3.05;;;;;;;;;;5034874;28;20131;-78
2023/11/24 03:14:42;;;;;;;23.08;3.83;;;;;;;;;;5029186;28;20037;-78
2023/11/24 03:17:29;;;;;;;14.68;3.13;;;;;;;;;;5025834;28;20401;-78
2023/11/24 03:20:15;;;;;;;16.05;2.40;;;;;;;;;;5042965;28;20095;-77
2023/11/24 03:23:02;;;;;;;16.25;2.88;;;;;;;;;;5024121;28;20042;-77
2023/11/24 03:25:49;;;;;;;22.00;4.20;;;;;;;;;;5018561;28;20036;-77
2023/11/24 03:28:36;;;;;;;18.05;3.08;;;;;;;;;;5027623;28;20590;-77
2023/11/24 03:31:22;;;;;;;15.85;2.85;;;;;;;;;;5022635;28;20150;-78
2023/11/24 03:34:09;;;;;;;20.10;3.03;;;;;;;;;;5018703;28;20034;-77
2023/11/24 03:36:55;;;;;;;17.45;3.25;;;;;;;;;;5013111;28;20045;-77
2023/11/24 03:39:41;;;;;;;20.92;2.72;;;;;;;;;;5045629;28;20076;-77
2023/11/24 03:42:28;;;;;;;23.98;3.90;;;;;;;;;;5016615;28;20038;-78
2023/11/24 03:45:15;;;;;;;12.85;2.83;;;;;;;;;;5032509;28;20040;-77
2023/11/24 03:48:02;;;;;;;25.05;3.78;;;;;;;;;;5020765;28;20034;-78
2023/11/24 03:50:50;;;;;;;28.00;4.22;;;;;;;;;;5029669;28;20465;-78
2023/11/24 03:53:37;;;;;;;14.75;3.08;;;;;;;;;;5046939;28;20059;-77
2023/11/24 03:56:23;;;;;;;17.15;2.85;;;;;;;;;;5038891;28;20048;-77
2023/11/24 03:59:10;;;;;;;20.15;3.80;;;;;;;;;;5043497;28;20064;-77
2023/11/24 04:01:56;;;;;;;19.67;3.33;;;;;;;;;;5044308;28;20037;-77
2023/11/24 04:04:46;;;;;;;23.27;4.10;;;;;;;;;;5033436;28;20145;-78
2023/11/24 04:07:32;;;;;;;26.42;3.78;;;;;;;;;;5045119;28;20048;-78
2023/11/24 04:10:20;;;;;;;24.85;3.88;;;;;;;;;;5021193;28;20058;-78
2023/11/24 04:13:06;;;;;;;15.35;3.95;;;;;;;;;;5032268;28;20062;-78
2023/11/24 04:15:53;;;;;;;25.23;4.15;;;;;;;;;;5034025;28;20063;-77
2023/11/24 04:18:41;;;;;;;27.08;4.13;;;;;;;;;;5030549;28;20490;-78
2023/11/24 04:21:27;;;;;;;;;;;;;;;;;;5018514;28;20042;-77
2023/11/24 04:24:14;;;;;;;21.00;3.28;;;;;;;;;;5041418;28;20699;-77
2023/11/24 04:27:01;;;;;;;21.45;3.65;;;;;;;;;;5049298;28;20045;-77
2023/11/24 04:29:47;;;;;;;14.82;3.83;;;;;;;;;;5035627;28;20042;-78
2023/11/24 04:32:33;;;;;;;15.65;2.90;;;;;;;;;;5024496;28;20487;-76
2023/11/24 04:35:20;;;;;;;13.75;2.53;;;;;;;;;;5020197;28;20486;-76
2023/11/24 04:38:07;;;;;;;9.65;1.90;;;;;;;;;;5015958;28;20041;-76
2023/11/24 04:40:56;;;;;;;8.90;1.73;;;;;;;;;;5044063;28;20124;-78
2023/11/24 04:43:45;;;;;;;7.90;1.67;;;;;;;;;;5028048;28;20184;-78
2023/11/24 04:46:32;;;;;;;12.52;2.50;;;;;;;;;;5018682;28;20046;-78
2023/11/24 04:49:19;;;;;;;12.40;2.03;;;;;;;;;;5017372;28;20057;-78
2023/11/24 04:52:06;;;;;;;13.30;2.40;;;;;;;;;;5030361;28;20057;-78
2023/11/24 04:54:52;;;;;;;12.32;1.98;;;;;;;;;;5032716;28;20091;-78
2023/11/24 04:57:39;;;;;;;19.70;3.05;;;;;;;;;;5016470;28;20033;-78
2023/11/24 05:00:35;;;;;;;15.43;2.78;;;;;;;;;;5024031;28;20037;-78
2023/11/24 05:03:22;;;;;;;14.65;2.03;;;;;;;;;;5017780;28;20184;-78
2023/11/24 05:06:09;;;;;;;13.15;2.08;;;;;;;;;;5033654;28;20036;-78
2023/11/24 05:08:55;;;;;;;11.25;2.17;;;;;;;;;;5055636;28;20041;-78
2023/11/24 05:11:41;;;;;;;9.10;2.38;;;;;;;;;;5037811;28;20045;-77
2023/11/24 05:14:28;;;;;;;12.93;2.70;;;;;;;;;;5026317;28;20045;-78
2023/11/24 05:17:14;;;;;;;13.05;2.60;;;;;;;;;;5009384;28;20055;-77
2023/11/24 05:20:01;;;;;;;15.88;2.88;;;;;;;;;;5039109;28;20029;-78
2023/11/24 05:22:47;;;;;;;14.40;2.83;;;;;;;;;;5050538;28;20044;-78
2023/11/24 05:25:33;;;;;;;9.45;2.67;;;;;;;;;;5036729;28;20068;-76
2023/11/24 05:28:20;;;;;;;25.85;4.47;;;;;;;;;;5015802;28;20048;-77
2023/11/24 05:31:07;;;;;;;16.35;3.33;;;;;;;;;;5029947;28;20481;-77
2023/11/24 05:33:54;;;;;;;16.35;2.97;;;;;;;;;;5016042;28;20046;-78
2023/11/24 05:36:42;;;;;;;13.73;2.70;;;;;;;;;;5014707;28;20433;-77
2023/11/24 05:39:28;;;;;;;15.82;2.67;;;;;;;;;;5038549;28;20039;-78
2023/11/24 05:42:16;;;;;;;16.35;3.22;;;;;;;;;;5031421;28;20030;-77
2023/11/24 05:45:03;;;;;;;15.05;2.60;;;;;;;;;;5032654;28;20466;-76
2023/11/24 05:47:49;;;;;;;11.18;2.42;;;;;;;;;;5006381;28;20454;-77
2023/11/24 05:50:36;;;;;;;11.98;2.45;;;;;;;;;;5016451;28;20038;-77
2023/11/24 05:53:22;;;;;;;14.90;2.53;;;;;;;;;;5035077;28;20545;-76
2023/11/24 05:56:09;;;;;;;12.77;2.40;;;;;;;;;;5031849;28;20124;-77
2023/11/24 05:58:56;;;;;;;14.18;2.35;;;;;;;;;;5018489;28;20034;-77
2023/11/24 06:01:42;;;;;;;18.23;2.78;;;;;;;;;;5013502;28;20378;-77
2023/11/24 06:04:29;;;;;;;12.43;2.70;;;;;;;;;;5031695;28;20044;-76
2023/11/24 06:07:15;;;;;;;13.25;2.70;;;;;;;;;;5022571;28;20068;-77
2023/11/24 06:10:02;;;;;;;15.07;2.30;;;;;;;;;;5028155;28;20052;-78
2023/11/24 06:12:48;;;;;;;13.25;2.67;;;;;;;;;;5027684;28;20042;-76
2023/11/24 06:15:35;;;;;;;12.35;2.63;;;;;;;;;;5025540;28;20428;-76
2023/11/24 06:18:22;;;;;;;13.45;2.53;;;;;;;;;;5037070;28;20043;-77
2023/11/24 06:21:12;;;;;;;12.13;2.63;;;;;;;;;;5006957;28;20041;-77
2023/11/24 06:23:59;;;;;;;13.55;2.55;;;;;;;;;;5003438;28;20087;-77
2023/11/24 06:26:46;;;;;;;17.73;3.05;;;;;;;;;;5006689;28;20099;-75
2023/11/24 06:29:32;;;;;;;7.43;1.60;;;;;;;;;;5021155;28;20092;-77
2023/11/24 06:32:19;;;;;;;14.60;2.08;;;;;;;;;;5001268;28;20058;-75
2023/11/24 06:35:09;;;;;;;7.93;1.75;;;;;;;;;;5037687;28;20393;-76
2023/11/24 06:37:56;;;;;;;9.90;2.03;;;;;;;;;;5041235;28;20029;-76
2023/11/24 06:40:43;;;;;;;14.65;2.50;;;;;;;;;;5020895;28;20391;-76
2023/11/24 06:43:30;;;;;;;9.65;1.88;;;;;;;;;;5052640;28;20041;-76
2023/11/24 06:46:16;;;;;;;11.80;2.40;;;;;;;;;;5020808;28;20470;-75
2023/11/24 06:49:05;;;;;;;7.85;1.85;;;;;;;;;;5046297;28;20051;-76
2023/11/24 06:51:52;;;;;;;11.40;1.98;;;;;;;;;;5032793;28;20037;-77
2023/11/24 06:54:39;;;;;;;13.50;1.90;;;;;;;;;;5038302;28;20041;-77
2023/11/24 06:57:25;;;;;;;11.38;1.83;;;;;;;;;;5016580;28;20034;-75
2023/11/24 07:00:17;;;;;;;8.60;1.88;;;;;;;;;;5019717;28;20129;-78
2023/11/24 07:03:03;;;;;;;4.28;1.30;;;5.40;99.90;;;;;;5046781;28;20038;-76
2023/11/24 07:05:49;;;;;;;7.10;1.80;;;5.50;99.90;;;;;;5046177;28;20041;-77
2023/11/24 07:08:35;;;;;;;10.55;2.05;;;5.40;99.90;;;;;;5028263;28;20048;-76
2023/11/24 07:11:22;;;;;;;10.25;2.00;;;5.40;99.90;;;;;;5039949;28;20049;-76
2023/11/24 07:14:08;;;;;;;10.80;1.75;;;5.50;99.90;;;;;;5026252;28;20757;-77
2023/11/24 07:16:54;;;;;;;5.47;1.55;;;5.40;99.90;;;;;;4998766;28;20053;-76
2023/11/24 07:19:41;;;;;;;10.38;1.50;;;5.40;99.90;;;;;;5013614;28;20073;-76
2023/11/24 07:22:29;;;;;;;7.13;1.70;;;5.40;99.90;;;;;;5016635;28;20037;-75
2023/11/24 07:25:16;;;;;;;;;;;5.30;99.90;;;;;;5022827;28;20039;-76
2023/11/24 07:28:04;;;;;;;6.88;1.88;;;5.30;99.90;;;;;;5024869;28;19963;-76
2023/11/24 07:30:50;;;;;;;7.53;1.65;;;5.30;99.90;;;;;;5045174;28;20120;-75
2023/11/24 07:33:37;;;;;;;9.90;1.80;;;5.20;99.90;;;;;;5055969;28;20496;-75
2023/11/24 07:36:23;;;;;;;6.07;1.83;;;5.20;99.90;;;;;;5002991;28;20375;-75
2023/11/24 07:39:10;;;;;;;12.00;2.25;;;5.20;99.90;;;;;;5021532;28;20040;-75
2023/11/24 07:41:59;;;;;;;9.20;2.35;;;5.30;99.90;;;;;;5016197;28;20034;-75
2023/11/24 07:44:45;;;;;;;7.53;2.58;;;5.20;99.90;;;;;;5024039;28;20051;-75
2023/11/24 07:47:31;;;;;;;9.15;2.17;;;5.20;99.90;;;;;;5021666;28;20145;-75
2023/11/24 07:50:17;;;;;;;10.75;2.28;;;5.20;99.90;;;;;;5005692;28;20072;-75
2023/11/24 07:53:03;;;;;;;13.27;2.17;;;5.20;99.90;;;;;;5039452;28;20040;-76
2023/11/24 07:55:49;;;;;;;8.98;2.10;;;5.20;99.90;;;;;;5026129;28;20041;-76
2023/11/24 07:58:35;;;;;;;14.35;2.45;;;5.20;99.90;;;;;;5036769;28;20080;-75
2023/11/24 08:01:21;;;;;;;9.80;1.67;;;5.20;99.90;;;;;;5033126;28;20056;-75
2023/11/24 08:04:08;;;;;;;19.63;2.60;;;5.30;99.90;;;;;;5033370;28;20903;-76
2023/11/24 08:06:54;;;;;;;13.20;2.58;;;5.30;99.90;;;;;;5020224;28;20053;-74
2023/11/24 08:09:40;;;;;;;11.10;2.75;;;5.30;99.90;;;;;;5030049;28;20037;-75
2023/11/24 08:12:27;;;;;;;6.90;1.30;;;5.30;99.90;;;;;;5011763;28;20076;-75
2023/11/24 08:15:16;;;;;;;12.17;1.53;;;5.30;99.90;;;;;;5013446;28;20034;-76
2023/11/24 08:18:02;;;;;;;13.10;2.53;;;5.30;99.90;;;;;;5031622;28;20061;-76
2023/11/24 08:20:48;;;;;;;10.93;2.03;;;5.30;99.90;;;;;;5017995;28;20370;-76
2023/11/24 08:23:35;;;;;;;7.30;2.47;;;5.40;99.90;;;;;;5009265;28;20047;-76
2023/11/24 08:26:24;;;;;;;10.02;1.55;;;5.30;99.90;;;;;;5004582;28;20053;-76
2023/11/24 08:29:10;;;;;;;9.13;1.77;;;5.30;99.90;;;;;;5027117;28;20133;-76
2023/11/24 08:31:57;;;;;;;8.73;1.60;;;5.30;99.90;;;;;;5021718;28;20058;-78
2023/11/24 08:34:43;;;;;;;10.27;1.75;;;5.30;99.90;;;;;;5019196;28;20037;-76
2023/11/24 08:37:30;;;;;;;6.47;1.48;;;5.30;99.90;;;;;;5022243;28;20049;-77
2023/11/24 08:40:17;;;;;;;7.72;2.58;;;5.30;99.90;;;;;;5034917;28;20373;-77
2023/11/24 08:43:04;;;;;;;14.38;2.03;;;5.30;99.90;;;;;;5026450;28;20099;-77
2023/11/24 08:45:50;;;;;;;13.63;2.40;;;5.40;99.90;;;;;;5022658;28;20364;-77
2023/11/24 08:48:36;;;;;;;7.10;1.70;;;5.30;99.90;;;;;;5020769;28;20076;-77
2023/11/24 08:51:22;;;;;;;9.75;3.42;;;5.40;99.90;;;;;;5001141;28;20052;-77
2023/11/24 08:54:09;;;;;;;11.23;1.92;;;5.30;99.90;;;;;;5006020;28;20051;-76
2023/11/24 08:56:55;;;;;;;10.73;1.83;;;5.30;99.90;;;;;;5001888;28;20108;-76
2023/11/24 08:59:42;;;;;;;7.90;1.48;;;5.30;99.90;;;;;;5029807;28;20052;-77
2023/11/24 09:02:29;;;;;;;10.55;1.48;;;5.30;99.90;;;;;;5026530;28;20029;-77
2023/11/24 09:05:15;;;;;;;9.40;2.00;;;5.30;99.90;;;;;;5014759;28;20038;-76
2023/11/24 09:08:01;;;;;;;9.00;2.03;;;5.30;99.90;;;;;;5023128;28;20034;-78
2023/11/24 09:10:47;;;;;;;7.25;1.65;;;5.30;99.90;;;;;;5025552;28;20073;-77
2023/11/24 09:13:34;;;;;;;9.50;2.22;;;5.10;99.90;;;;;;5029421;28;20045;-77
2023/11/24 09:16:20;;;;;;;9.13;2.38;;;5.00;99.90;;;;;;5015486;28;20486;-77
2023/11/24 09:19:06;;;;;;;8.85;1.50;;;5.00;99.90;;;;;;4995404;28;20128;-77
2023/11/24 09:21:52;;;;;;;9.02;1.85;;;5.00;99.90;;;;;;5018073;28;20049;-77
2023/11/24 09:24:38;;;;;;;13.88;2.33;;;5.10;99.90;;;;;;5017239;28;20092;-77
2023/11/24 09:27:24;;;;;;;11.45;2.53;;;5.20;99.90;;;;;;5017153;28;20072;-77
2023/11/24 09:30:11;;;;;;;4.78;0.70;;;5.20;99.90;;;;;;5027130;28;20096;-77
2023/11/24 09:32:57;;;;;;;9.97;2.30;;;4.80;99.90;;;;;;5003880;28;20459;-77
2023/11/24 09:35:43;;;;;;;4.78;1.45;;;4.60;99.90;;;;;;5016722;28;20394;-77
2023/11/24 09:38:29;;;;;;;3.53;0.90;;;4.30;99.90;;;;;;5021504;28;20097;-76
2023/11/24 09:41:15;;;;;;;3.10;0.70;;;4.20;99.90;;;;;;5002248;28;20049;-77
2023/11/24 09:44:03;;;;;;;3.30;1.15;;;3.90;99.90;;;;;;5004107;28;20042;-76
2023/11/24 09:46:49;;;;;;;3.10;0.80;;;4.00;99.90;;;;;;5018082;28;20418;-77
2023/11/24 09:49:35;;;;;;;4.70;0.90;;;3.90;99.90;;;;;;5002441;28;20045;-77
2023/11/24 09:52:23;;;;;;;2.30;0.80;;;3.70;99.90;;;;;;5001892;28;20073;-77
2023/11/24 09:55:09;;;;;;;4.28;1.35;;;3.60;99.90;;;;;;5038235;28;20424;-76
2023/11/24 09:58:02;;;;;;;6.03;1.45;;;3.70;99.90;;;;;;5015724;28;20034;-75
2023/11/24 10:00:49;;;;;;;7.10;1.45;;;3.70;99.90;;;;;;5012744;28;20038;-75
2023/11/24 10:03:38;;;;;;;8.02;1.42;;;3.80;99.90;;;;;;5029870;28;20112;-74
2023/11/24 10:06:26;;;;;;;3.72;1.40;;;3.90;99.90;;;;;;5036669;28;20049;-75
2023/11/24 10:09:28;;;;;;;4.63;1.33;;;4.00;99.90;;;;;;5033938;28;20041;-77
2023/11/24 10:12:18;;;;;;;5.07;1.50;;;4.00;99.90;;;;;;5038244;28;20041;-77
2023/11/24 10:15:07;;;;;;;8.65;1.95;;;4.20;99.90;;;;;;5003187;28;20120;-77
2023/11/24 10:17:57;;;;;;;6.53;1.52;;;4.20;99.90;;;;;;5004144;28;20414;-77
2023/11/24 10:20:44;;;;;;;6.28;1.85;;;4.30;99.90;;;;;;5014048;28;20033;-77
2023/11/24 10:23:33;;;;;;;8.10;1.83;;;4.40;99.90;;;;;;5022107;28;20060;-77
2023/11/24 10:26:20;;;;;;;10.23;2.03;;;4.40;99.90;;;;;;5025250;28;20095;-77
2023/11/24 10:29:08;;;;;;;10.23;1.60;;;4.40;99.90;;;;;;5014690;28;20048;-77
2023/11/24 10:31:54;;;;;;;3.97;1.30;;;4.40;99.90;;;;;;5038422;28;20320;-77
2023/11/24 10:34:42;;;;;;;6.40;1.80;;;4.40;99.90;;;;;;5040352;28;20047;-77
2023/11/24 10:37:28;;;;;;;10.48;1.77;;;4.30;99.90;;;;;;5031235;28;20033;-77
2023/11/24 10:40:15;;;;;;;4.82;1.98;;;4.30;99.90;;;;;;5026593;28;20065;-77
2023/11/24 10:43:03;;;;;;;4.75;1.40;;;4.20;99.90;;;;;;5041809;28;20044;-77
2023/11/24 10:45:51;;;;;;;7.70;1.40;;;4.30;99.90;;;;;;5008062;28;20047;-77
2023/11/24 10:48:59;;;;;;;7.45;1.70;;;4.30;99.90;;;;;;5015018;28;20037;-77
2023/11/24 10:51:59;;;;;;;7.28;1.40;;;4.30;99.90;;;;;;5022599;28;20045;-78
2023/11/24 10:54:51;;;;;;;4.80;1.40;;;4.20;99.90;;;;;;5016019;28;20045;-77
2023/11/24 10:57:42;;;;;;;9.57;1.58;;;4.20;99.90;;;;;;4997004;28;20034;-74
2023/11/24 11:00:30;;;;;;;7.55;1.48;;;4.20;99.90;;;;;;5019838;28;20037;-77
2023/11/24 11:03:16;;;;;;;8.38;1.58;;;4.20;99.90;;;;;;5021850;28;20038;-77
2023/11/24 11:06:10;;;;;;;6.80;2.38;;;4.40;99.90;;;;;;5025208;28;20070;-77
2023/11/24 11:09:14;;;;;;;7.63;2.08;;;4.80;99.90;;;;;;5010967;28;20038;-77
2023/11/24 11:12:36;;;;;;;8.32;1.42;;;5.50;99.90;;;;;;5023151;28;20075;-78
2023/11/24 11:15:31;;;;;;;11.63;1.85;;;5.20;99.90;;;;;;5029319;28;20044;-77
2023/11/24 11:18:17;;;;;;;13.60;1.70;;;5.50;99.90;;;;;;5014533;28;20038;-77
2023/11/24 11:21:22;;;;;;;8.70;1.63;;;5.40;99.90;;;;;;5013417;28;20046;-77
2023/11/24 11:24:09;;;;;;;10.75;1.95;;;5.40;99.90;;;;;;5025333;28;20049;-77
2023/11/24 11:26:55;;;;;;;9.25;1.10;;;5.40;99.90;;;;;;5025687;28;20065;-77
2023/11/24 11:29:41;;;;;;;4.95;1.05;;;5.30;99.90;;;;;;5015499;28;20071;-77
2023/11/24 11:32:31;;;;;;;9.98;1.95;;;5.80;99.90;;;;;;5014826;28;20433;-77
2023/11/24 11:35:17;;;;;;;3.50;0.98;;;6.50;99.90;;;;;;5026564;28;20105;-78
2023/11/24 11:38:06;;;;;;;3.00;0.82;;;6.70;99.90;;;;;;5010662;28;20490;-78
2023/11/24 11:40:52;;;;;;;3.50;0.85;;;6.60;99.90;;;;;;5030303;28;20366;-77
2023/11/24 11:43:54;;;;;;;3.50;0.85;;;6.90;99.90;;;;;;5028091;28;20033;-78
2023/11/24 11:47:20;;;;;;;6.22;1.27;;;6.30;99.90;;;;;;5021167;28;20037;-77
2023/11/24 11:50:09;;;;;;;7.57;1.98;;;6.00;99.90;;;;;;5016243;28;20090;-77
2023/11/24 11:53:00;;;;;;;5.45;1.30;;;6.30;99.90;;;;;;5002703;28;20042;-77
2023/11/24 11:55:47;;;;;;;9.25;1.40;;;6.70;99.90;;;;;;5035038;28;20052;-77
2023/11/24 11:58:34;;;;;;;6.40;1.77;;;6.40;99.90;;;;;;5011375;28;20072;-77
2023/11/24 12:01:21;;;;;;;9.70;2.00;;;6.20;99.90;;;;;;5003035;28;20096;-77
2023/11/24 12:04:08;;;;;;;8.68;1.65;;;6.00;99.90;;;;;;5001663;28;20081;-77
2023/11/24 12:06:55;;;;;;;11.55;1.85;;;6.50;99.90;;;;;;5027798;28;20075;-78
2023/11/24 12:09:42;;;;;;;8.93;2.10;;;6.70;99.90;;;;;;5028316;28;20040;-77
2023/11/24 12:12:29;;;;;;;10.88;2.08;;;6.70;99.90;;;;;;5045823;28;20056;-78
2023/11/24 12:15:19;;;;;;;14.70;2.72;;;6.40;99.90;;;;;;5018310;28;20376;-77
2023/11/24 12:18:08;;;;;;;10.35;2.17;;;6.30;99.90;;;;;;5031986;28;20371;-78
2023/11/24 12:21:00;;;;;;;10.00;2.10;;;6.20;99.90;;;;;;5025823;28;20128;-77
2023/11/24 12:23:46;;;;;;;12.57;3.60;;;6.10;99.90;;;;;;5028288;28;20459;-78
2023/11/24 12:26:35;;;;;;;12.35;2.72;;;6.00;99.90;;;;;;5037384;28;20127;-77
2023/11/24 12:29:24;;;;;;;12.27;2.60;;;5.80;99.90;;;;;;5032729;28;20041;-78
2023/11/24 12:32:11;;;;;;;12.95;2.28;;;5.80;99.90;;;;;;5018159;28;20097;-77
2023/11/24 12:34:59;;;;;;;13.23;2.30;;;5.80;99.90;;;;;;5015906;28;20493;-78
2023/11/24 12:37:49;;;;;;;11.20;1.73;;;5.50;99.90;;;;;;4991254;28;20042;-76
2023/11/24 12:40:35;;;;;;;6.28;1.40;;;4.80;99.90;;;;;;5027751;28;20030;-77
2023/11/24 12:43:24;;;;;;;4.13;0.77;;;4.40;99.90;;;;;;5003770;28;20797;-77
2023/11/24 12:46:20;;;;;;;3.40;0.80;;;4.10;99.90;;;;;;5051361;28;20049;-77
2023/11/24 12:49:09;;;;;;;2.00;0.60;;;3.70;99.90;;;;;;5037232;28;20362;-76
2023/11/24 12:51:55;;;;;;;3.75;0.73;;;3.40;99.90;;;;;;5004476;28;20045;-76
2023/11/24 12:54:42;;;;;;;2.95;0.60;;;3.20;99.90;;;;;;5031071;28;20057;-76
2023/11/24 12:57:29;;;;;;;4.18;0.70;;;3.20;99.90;;;;;;5054967;28;20028;-77
2023/11/24 13:00:16;;;;;;;2.15;0.60;;;3.30;99.90;;;;;;5023320;28;20038;-77
2023/11/24 13:03:03;;;;;;;1.95;0.70;;;3.30;99.90;;;;;;5033677;28;20049;-77
2023/11/24 13:05:49;;;;;;;3.72;0.77;;;3.40;99.90;;;;;;5019405;28;20037;-77
2023/11/24 13:08:37;;;;;;;4.72;0.80;;;3.40;99.90;;;;;;5023010;28;20049;-77
2023/11/24 13:11:24;;;;;;;1.15;0.50;;;3.40;99.90;;;;;;5025558;28;20041;-77
2023/11/24 13:14:12;;;;;;;1.80;0.82;;;3.30;99.90;;;;;;5037782;28;20130;-77
2023/11/24 13:16:58;;;;;;;2.33;1.25;;;3.30;99.90;;;;;;5017043;28;20034;-77
2023/11/24 13:19:44;;;;;;;1.25;0.60;;;3.30;99.90;;;;;;5027774;28;20516;-77
2023/11/24 13:22:33;;;;;;;1.27;0.40;;;3.30;99.90;;;;;;5020960;28;20462;-78
2023/11/24 13:25:25;;;;;;;1.17;0.38;;;3.60;99.90;;;;;;4996778;28;20559;-77
2023/11/24 13:28:11;;;;;;;3.63;0.73;;;3.70;99.90;;;;;;5027058;28;20143;-77
2023/11/24 13:30:58;;;;;;;3.10;0.93;;;3.70;99.90;;;;;;5004339;28;20123;-77
2023/11/24 13:33:44;;;;;;;5.47;1.00;;;3.70;99.90;;;;;;4992032;28;20408;-77
2023/11/24 13:36:31;;;;;;;2.25;0.77;;;3.60;99.90;;;;;;5028973;28;20034;-77
2023/11/24 13:39:24;;;;;;;8.20;1.60;;;4.00;99.90;;;;;;5049369;28;20029;-77
2023/11/24 13:42:10;;;;;;;3.67;1.10;;;3.80;99.90;;;;;;5015071;28;20091;-77
2023/11/24 13:44:57;;;;;;;5.30;1.48;;;3.70;99.90;;;;;;5013927;28;20042;-77
2023/11/24 13:47:44;;;;;;;5.85;1.30;;;3.80;99.90;;;;;;5038239;28;20037;-77
2023/11/24 13:50:31;;;;;;;8.50;1.40;;;3.80;99.90;;;;;;5056317;28;20080;-77
2023/11/24 13:53:18;;;;;;;9.07;2.30;;;3.70;99.90;;;;;;5057352;28;20083;-77
2023/11/24 13:56:05;;;;;;;5.28;1.75;;;3.80;99.90;;;;;;5044388;28;20373;-77
2023/11/24 13:58:51;;;;;;;6.50;1.50;;;3.80;99.90;;;;;;5025346;28;20029;-77
2023/11/24 14:01:37;;;;;;;4.88;1.70;;;3.80;99.90;;;;;;5036889;28;20068;-77
2023/11/24 14:04:23;;;;;;;6.97;2.28;;;3.80;99.90;;;;;;5055162;28;20037;-77
2023/11/24 14:07:09;;;;;;;7.97;1.85;;;3.80;99.90;;;;;;5030119;28;20045;-77
2023/11/24 14:09:55;;;;;;;10.95;1.80;;;3.80;99.90;;;;;;5010476;28;20526;-78
2023/11/24 14:12:45;;;;;;;6.75;2.38;;;4.00;99.90;;;;;;5016285;28;20049;-77
2023/11/24 14:15:32;;;;;;;6.70;1.67;;;4.00;99.90;;;;;;5031609;28;20033;-77
2023/11/24 14:18:19;;;;;;;7.73;1.90;;;4.00;99.90;;;;;;5006649;28;20073;-77
2023/11/24 14:21:05;;;;;;;8.70;2.38;;;4.10;99.90;;;;;;5016678;28;20041;-78
2023/11/24 14:23:51;;;;;;;9.63;2.90;;;4.20;99.90;;;;;;4999855;28;20378;-77
2023/11/24 14:26:38;;;;;;;7.57;2.33;;;4.30;99.90;;;;;;5001623;28;20037;-77
2023/11/24 14:29:26;;;;;;;4.10;1.30;;;4.10;99.90;;;;;;5016532;28;20045;-77
2023/11/24 14:32:13;;;;;;;4.88;1.40;;;3.80;99.90;;;;;;5016274;28;20494;-77
2023/11/24 14:35:05;;;;;;;2.57;1.00;;;3.50;99.90;;;;;;5039477;28;20407;-77
2023/11/24 14:37:52;;;;;;;3.38;1.00;;;3.30;99.90;;;;;;5002330;28;20044;-77
2023/11/24 14:40:42;;;;;;;3.08;0.82;;;3.10;99.90;;;;;;4996326;28;20038;-77
2023/11/24 14:43:28;;;;;;;1.30;0.45;;;3.00;99.90;;;;;;5017445;28;20147;-77
2023/11/24 14:46:14;;;;;;;1.98;0.47;;;2.50;99.90;;;;;;5009323;28;20755;-76
2023/11/24 14:49:00;;;;;;;5.07;0.50;;;2.10;99.90;;;;;;5036566;28;20511;-76
2023/11/24 14:51:47;;;;;;;2.25;0.50;;;2.00;99.90;;;;;;5003150;28;20335;-77
2023/11/24 14:54:37;;;;;;;2.05;0.52;;;2.00;99.90;;;;;;5001842;28;20065;-77
2023/11/24 14:57:23;;;;;;;1.85;0.70;;;1.90;99.90;;;;;;5008600;28;20037;-77
2023/11/24 15:00:23;;;;;;;1.98;0.55;;;2.00;99.90;;;;;;5023439;28;20044;-77
2023/11/24 15:03:14;;;;;;;2.60;0.80;;;1.90;99.90;;;;;;5011571;28;20038;-76
2023/11/24 15:06:03;;;;;;;3.00;0.90;;;2.00;99.90;;;;;;5053364;28;20094;-76
2023/11/24 15:08:53;;;;;;;2.78;0.60;;;1.90;99.90;;;;;;4990223;28;20042;-77
2023/11/24 15:11:45;;;;;;;4.63;1.00;;;2.00;99.90;;;;;;5021526;28;20057;-77